createdAt,value
2018-05-04T00:02:10.224Z,12.50
2018-05-04T00:04:38.515Z,13.20
2018-05-04T00:07:06.830Z,14.20
2018-05-04T00:09:35.470Z,14.10
2018-05-04T00:12:03.939Z,13.23
2018-05-04T00:14:32.228Z,13.97
2018-05-04T00:17:00.534Z,14.33
2018-05-04T00:19:28.870Z,13.40
2018-05-04T00:21:57.167Z,14.90
2018-05-04T00:24:25.455Z,14.40
2018-05-04T00:26:54.215Z,14.70
2018-05-04T00:29:22.503Z,14.33
2018-05-04T00:31:50.789Z,13.93
2018-05-04T00:34:19.144Z,12.53
2018-05-04T00:36:47.432Z,13.17
2018-05-04T00:39:15.710Z,14.43
2018-05-04T00:41:44.048Z,14.23
2018-05-04T00:44:12.478Z,12.87
2018-05-04T00:46:40.765Z,16.03
2018-05-04T00:49:09.843Z,13.90
2018-05-04T00:51:38.139Z,16.30
2018-05-04T00:54:23.915Z,15.27
2018-05-04T00:56:52.193Z,16.43
2018-05-04T00:59:20.477Z,13.87
2018-05-04T01:01:48.787Z,15.90
2018-05-04T01:04:17.087Z,15.10
2018-05-04T01:06:45.398Z,17.53
2018-05-04T01:09:13.687Z,15.87
2018-05-04T01:11:42.783Z,15.30
2018-05-04T01:14:11.087Z,14.57
2018-05-04T01:16:39.378Z,16.73
2018-05-04T01:19:07.745Z,16.90
2018-05-04T01:21:36.783Z,16.67
2018-05-04T01:24:05.419Z,16.87
2018-05-04T01:26:33.729Z,17.17
2018-05-04T01:29:02.025Z,16.17
2018-05-04T01:31:30.343Z,17.10
2018-05-04T01:33:59.390Z,17.87
2018-05-04T01:36:27.709Z,17.07
2018-05-04T01:38:56.007Z,17.53
2018-05-04T01:41:25.183Z,15.20
2018-05-04T01:43:54.258Z,17.77
2018-05-04T01:46:22.542Z,18.03
2018-05-04T01:48:50.897Z,16.80
2018-05-04T01:51:19.428Z,17.60
2018-05-04T01:53:47.727Z,17.30
2018-05-04T01:56:16.060Z,17.63
2018-05-04T01:58:44.339Z,17.60
2018-05-04T02:01:12.698Z,17.43
2018-05-04T02:03:41.712Z,17.60
2018-05-04T02:06:10.119Z,18.80
2018-05-04T02:08:38.403Z,17.47
2018-05-04T02:11:07.366Z,19.33
2018-05-04T02:13:36.419Z,18.53
2018-05-04T02:16:05.125Z,16.50
2018-05-04T02:18:33.550Z,16.83
2018-05-04T02:21:02.186Z,17.27
2018-05-04T02:23:30.516Z,18.80
2018-05-04T02:25:58.828Z,18.70
2018-05-04T02:28:27.118Z,18.03
2018-05-04T02:30:56.466Z,19.17
2018-05-04T02:33:25.149Z,18.00
2018-05-04T02:35:53.474Z,17.37
2018-05-04T02:38:21.778Z,16.63
2018-05-04T02:40:50.144Z,18.50
2018-05-04T02:43:19.881Z,21.03
2018-05-04T02:45:48.198Z,17.23
2018-05-04T02:48:16.907Z,17.70
2018-05-04T02:50:45.202Z,20.00
2018-05-04T02:53:13.684Z,17.00
2018-05-04T02:55:41.840Z,18.30
2018-05-04T02:58:10.443Z,16.70
2018-05-04T03:00:39.319Z,18.40
2018-05-04T03:03:08.191Z,18.80
2018-05-04T03:05:36.686Z,19.50
2018-05-04T03:08:05.067Z,18.83
2018-05-04T03:10:33.395Z,18.57
2018-05-04T03:13:01.689Z,18.10
2018-05-04T03:15:29.970Z,18.00
2018-05-04T03:17:59.518Z,18.70
2018-05-04T03:20:28.124Z,18.37
2018-05-04T03:22:57.174Z,18.73
2018-05-04T03:25:25.487Z,17.70
2018-05-04T03:27:53.778Z,17.80
2018-05-04T03:30:22.851Z,17.23
2018-05-04T03:32:51.130Z,17.43
2018-05-04T03:35:19.415Z,17.90
2018-05-04T03:37:47.758Z,16.93
2018-05-04T03:40:16.049Z,17.30
2018-05-04T03:42:44.428Z,18.70
2018-05-04T03:45:12.741Z,20.03
2018-05-04T03:47:41.790Z,18.03
2018-05-04T03:50:10.079Z,16.87
2018-05-04T03:52:38.414Z,18.50
2018-05-04T03:55:07.959Z,17.10
2018-05-04T03:57:53.883Z,17.87
2018-05-04T04:00:39.805Z,16.30
2018-05-04T04:03:25.717Z,17.43
2018-05-04T04:05:54.015Z,16.40
2018-05-04T04:08:23.030Z,17.50
2018-05-04T04:10:52.142Z,18.10
2018-05-04T04:13:20.657Z,17.37
2018-05-04T04:15:49.047Z,17.13
2018-05-04T04:18:17.378Z,15.43
2018-05-04T04:20:45.666Z,16.27
2018-05-04T04:23:13.982Z,15.87
2018-05-04T04:25:42.306Z,14.83
2018-05-04T04:28:11.406Z,16.60
2018-05-04T04:30:39.688Z,15.57
2018-05-04T04:33:08.346Z,14.07
2018-05-04T04:35:36.626Z,14.27
2018-05-04T04:38:05.447Z,14.00
2018-05-04T04:40:35.138Z,13.40
2018-05-04T04:43:03.425Z,13.63
2018-05-04T04:45:31.739Z,13.10
2018-05-04T04:48:00.201Z,12.93
2018-05-04T04:50:28.491Z,13.50
2018-05-04T04:52:56.772Z,14.63
2018-05-04T04:55:25.363Z,15.17
2018-05-04T04:57:53.851Z,15.20
2018-05-04T05:00:21.900Z,16.00
2018-05-04T05:02:50.587Z,15.27
2018-05-04T05:05:19.343Z,15.30
2018-05-04T05:07:47.682Z,16.57
2018-05-04T05:10:16.334Z,15.80
2018-05-04T05:12:45.383Z,16.00
2018-05-04T05:15:13.694Z,15.80
2018-05-04T05:17:42.659Z,14.90
2018-05-04T05:20:11.531Z,14.57
2018-05-04T05:22:40.056Z,15.00
2018-05-04T05:25:08.343Z,14.70
2018-05-04T05:27:36.752Z,12.87
2018-05-04T05:30:05.042Z,15.60
2018-05-04T05:32:33.633Z,14.60
2018-05-04T05:35:01.928Z,14.83
2018-05-04T05:37:30.222Z,14.37
2018-05-04T05:39:58.571Z,13.40
2018-05-04T05:42:27.383Z,14.43
2018-05-04T05:44:56.023Z,13.83
2018-05-04T05:47:24.550Z,13.17
2018-05-04T05:49:52.842Z,14.80
2018-05-04T05:52:21.138Z,14.67
2018-05-04T05:54:50.650Z,15.50
2018-05-04T05:57:18.959Z,15.13
2018-05-04T05:59:47.242Z,12.13
2018-05-04T06:02:15.571Z,13.53
2018-05-04T06:04:44.707Z,12.97
2018-05-04T06:07:13.833Z,11.47
2018-05-04T06:09:42.578Z,11.77
2018-05-04T06:12:11.294Z,11.30
2018-05-04T06:14:39.624Z,10.30
2018-05-04T06:17:08.530Z,11.00
2018-05-04T06:19:36.954Z,11.63
2018-05-04T06:22:05.897Z,11.17
2018-05-04T06:24:34.839Z,11.50
2018-05-04T06:27:03.933Z,11.17
2018-05-04T06:29:32.250Z,11.37
2018-05-04T06:32:00.543Z,11.40
2018-05-04T06:34:28.826Z,11.17
2018-05-04T06:36:57.763Z,11.13
2018-05-04T06:39:26.814Z,11.67
2018-05-04T06:41:55.409Z,9.93
2018-05-04T06:44:23.830Z,10.30
2018-05-04T06:46:52.114Z,10.27
2018-05-04T06:49:20.453Z,10.03
2018-05-04T06:51:48.795Z,9.47
2018-05-04T06:54:17.084Z,10.27
2018-05-04T06:56:45.366Z,9.13
2018-05-04T06:59:13.703Z,9.07
2018-05-04T07:01:42.516Z,9.00
2018-05-04T07:04:10.892Z,10.10
2018-05-04T07:06:39.794Z,9.70
2018-05-04T07:09:08.072Z,9.83
2018-05-04T07:11:36.390Z,8.50
2018-05-04T07:14:05.851Z,9.00
2018-05-04T07:16:34.138Z,9.50
2018-05-04T07:19:02.538Z,9.13
2018-05-04T07:21:31.530Z,10.47
2018-05-04T07:23:59.868Z,9.10
2018-05-04T07:26:28.152Z,9.70
2018-05-04T07:28:56.442Z,8.80
2018-05-04T07:31:25.718Z,8.43
2018-05-04T07:33:54.016Z,9.07
2018-05-04T07:36:22.293Z,9.80
2018-05-04T07:38:51.773Z,9.07
2018-05-04T07:41:20.050Z,8.87
2018-05-04T07:43:48.695Z,9.57
2018-05-04T07:46:17.566Z,9.60
2018-05-04T07:48:46.098Z,11.53
2018-05-04T07:51:14.658Z,11.23
2018-05-04T07:53:43.766Z,9.73
2018-05-04T07:56:12.174Z,9.20
2018-05-04T07:58:40.856Z,8.07
2018-05-04T08:01:09.426Z,9.47
2018-05-04T08:03:37.711Z,9.97
2018-05-04T08:06:06.003Z,9.10
2018-05-04T08:08:34.437Z,10.17
2018-05-04T08:11:02.767Z,8.93
2018-05-04T08:13:31.062Z,8.77
2018-05-04T08:15:59.368Z,9.27
2018-05-04T08:18:27.653Z,8.17
2018-05-04T08:20:59.879Z,8.23
2018-05-04T08:23:28.167Z,8.70
2018-05-04T08:25:56.502Z,8.97
2018-05-04T08:28:25.070Z,8.97
2018-05-04T08:30:53.351Z,9.50
2018-05-04T08:33:21.661Z,9.07
2018-05-04T08:35:49.939Z,9.00
2018-05-04T08:38:18.026Z,8.70
2018-05-04T08:40:46.317Z,9.23
2018-05-04T08:43:14.673Z,9.27
2018-05-04T08:45:43.562Z,8.03
2018-05-04T08:48:11.894Z,8.47
2018-05-04T08:50:40.179Z,9.67
2018-05-04T08:53:08.642Z,8.30
2018-05-04T08:55:36.927Z,9.30
2018-05-04T08:58:05.291Z,9.80
2018-05-04T09:00:34.378Z,10.47
2018-05-04T09:03:03.426Z,9.40
2018-05-04T09:05:31.728Z,10.07
2018-05-04T09:08:00.063Z,9.30
2018-05-04T09:10:28.347Z,9.40
2018-05-04T09:12:56.854Z,10.17
2018-05-04T09:15:25.168Z,10.03
2018-05-04T09:17:53.463Z,9.40
2018-05-04T09:20:21.789Z,11.60
2018-05-04T09:22:50.106Z,9.90
2018-05-04T09:25:18.684Z,9.40
2018-05-04T09:27:46.966Z,7.63
2018-05-04T09:30:15.311Z,9.70
2018-05-04T09:32:43.600Z,10.27
2018-05-04T09:35:12.381Z,8.40
2018-05-04T09:37:40.710Z,10.10
2018-05-04T09:40:09.979Z,9.40
2018-05-04T09:42:38.266Z,10.90
2018-05-04T09:45:06.587Z,10.20
2018-05-04T09:47:35.186Z,10.10
2018-05-04T09:50:03.730Z,9.93
2018-05-04T09:52:32.038Z,10.80
2018-05-04T09:55:00.343Z,11.10
2018-05-04T09:57:29.319Z,9.57
2018-05-04T09:59:57.607Z,10.23
2018-05-04T10:02:25.899Z,10.93
2018-05-04T10:04:54.223Z,10.40
2018-05-04T10:07:22.617Z,9.87
2018-05-04T10:09:50.907Z,10.80
2018-05-04T10:12:19.402Z,10.23
2018-05-04T10:14:47.691Z,9.17
2018-05-04T10:17:17.999Z,11.77
2018-05-04T10:19:47.088Z,10.03
2018-05-04T10:22:15.586Z,11.40
2018-05-04T10:24:43.875Z,11.50
2018-05-04T10:27:12.203Z,10.70
2018-05-04T10:29:40.487Z,10.80
2018-05-04T10:32:09.407Z,11.90
2018-05-04T10:34:37.722Z,11.50
2018-05-04T10:37:06.014Z,11.30
2018-05-04T10:39:34.332Z,10.60
2018-05-04T10:42:02.378Z,11.70
2018-05-04T10:44:30.687Z,12.03
2018-05-04T10:46:59.044Z,10.83
2018-05-04T10:49:27.330Z,11.80
2018-05-04T10:51:55.622Z,11.37
2018-05-04T10:54:23.963Z,11.40
2018-05-04T10:56:52.255Z,10.23
2018-05-04T10:59:20.537Z,11.03
2018-05-04T11:01:49.429Z,10.70
2018-05-04T11:04:17.714Z,10.67
2018-05-04T11:06:45.998Z,9.33
2018-05-04T11:09:14.311Z,11.20
2018-05-04T11:11:42.608Z,12.00
2018-05-04T11:14:10.938Z,10.70
2018-05-04T11:16:39.227Z,11.60
2018-05-04T11:19:08.277Z,11.63
2018-05-04T11:21:36.587Z,10.37
2018-05-04T11:24:04.952Z,10.93
2018-05-04T11:26:33.295Z,10.07
2018-05-04T11:29:02.118Z,10.60
2018-05-04T11:31:30.416Z,11.43
2018-05-04T11:33:58.831Z,10.13
2018-05-04T11:36:27.131Z,10.67
2018-05-04T11:38:55.517Z,10.10
2018-05-04T11:41:23.927Z,11.57
2018-05-04T11:43:52.631Z,10.60
2018-05-04T11:46:21.359Z,10.20
2018-05-04T11:48:49.637Z,10.40
2018-05-04T11:51:18.559Z,9.00
2018-05-04T11:53:46.851Z,9.00
2018-05-04T11:56:15.138Z,11.33
2018-05-04T11:58:44.242Z,10.73
2018-05-04T12:01:13.291Z,11.10
2018-05-04T12:03:41.566Z,9.83
2018-05-04T12:06:09.888Z,11.10
2018-05-04T12:08:38.934Z,9.73
2018-05-04T12:11:07.213Z,9.97
2018-05-04T12:13:35.542Z,11.07
2018-05-04T12:16:04.588Z,9.93
2018-05-04T12:18:32.886Z,10.77
2018-05-04T12:21:01.215Z,9.33
2018-05-04T12:23:29.503Z,10.13
2018-05-04T12:25:58.194Z,10.90
2018-05-04T12:28:26.535Z,11.47
2018-05-04T12:30:54.828Z,10.83
2018-05-04T12:33:23.162Z,10.33
2018-05-04T12:35:51.482Z,9.20
2018-05-04T12:38:19.782Z,9.30
2018-05-04T12:40:48.091Z,10.97
2018-05-04T12:43:16.391Z,10.30
2018-05-04T12:45:44.711Z,11.13
2018-05-04T12:48:12.994Z,11.43
2018-05-04T12:50:41.282Z,11.23
2018-05-04T12:53:09.593Z,11.87
2018-05-04T12:55:37.878Z,11.30
2018-05-04T12:58:06.966Z,10.10
2018-05-04T13:00:35.250Z,12.00
2018-05-04T13:03:03.538Z,12.40
2018-05-04T13:05:32.479Z,12.30
2018-05-04T13:08:00.771Z,13.23
2018-05-04T13:10:29.054Z,11.80
2018-05-04T13:12:57.429Z,10.63
2018-05-04T13:15:25.719Z,10.90
2018-05-04T13:17:55.003Z,10.53
2018-05-04T13:20:23.327Z,10.80
2018-05-04T13:22:52.018Z,11.23
2018-05-04T13:25:21.182Z,11.63
2018-05-04T13:27:50.492Z,10.83
2018-05-04T13:30:18.943Z,10.83
2018-05-04T13:32:47.230Z,11.30
2018-05-04T13:35:15.556Z,10.33
2018-05-04T13:37:43.836Z,9.93
2018-05-04T13:40:12.183Z,9.40
2018-05-04T13:42:40.482Z,10.33
2018-05-04T13:45:08.785Z,10.90
2018-05-04T13:47:37.070Z,11.97
2018-05-04T13:50:05.758Z,10.77
2018-05-04T13:52:34.074Z,10.50
2018-05-04T13:55:02.555Z,11.43
2018-05-04T13:57:30.889Z,11.63
2018-05-04T13:59:59.170Z,10.40
2018-05-04T14:02:27.454Z,12.63
2018-05-04T14:04:56.503Z,11.57
2018-05-04T14:07:24.803Z,11.53
2018-05-04T14:09:53.096Z,11.27
2018-05-04T14:12:21.443Z,10.20
2018-05-04T14:14:49.731Z,11.97
2018-05-04T14:17:18.019Z,12.63
2018-05-04T14:19:46.907Z,12.10
2018-05-04T14:22:15.198Z,11.37
2018-05-04T14:24:43.494Z,11.83
2018-05-04T14:27:11.829Z,11.27
2018-05-04T14:29:40.124Z,12.17
2018-05-04T14:32:08.418Z,12.10
2018-05-04T14:34:37.330Z,11.87
2018-05-04T14:37:05.619Z,12.50
2018-05-04T14:39:34.674Z,11.70
2018-05-04T14:42:03.026Z,11.40
2018-05-04T14:44:31.319Z,12.40
2018-05-04T14:46:59.609Z,11.50
2018-05-04T14:49:27.958Z,11.60
2018-05-04T14:51:57.043Z,12.30
2018-05-04T14:54:25.298Z,12.07
2018-05-04T14:56:53.416Z,10.60
2018-05-04T14:59:21.811Z,12.13
2018-05-04T15:01:50.132Z,10.73
2018-05-04T15:04:18.429Z,12.33
2018-05-04T15:06:47.178Z,12.63
2018-05-04T15:09:15.516Z,12.10
2018-05-04T15:11:44.122Z,11.97
2018-05-04T15:14:12.839Z,11.93
2018-05-04T15:16:41.234Z,10.60
2018-05-04T15:19:09.490Z,11.57
2018-05-04T15:21:37.782Z,11.60
2018-05-04T15:24:06.288Z,11.93
2018-05-04T15:26:34.586Z,10.47
2018-05-04T15:29:02.875Z,11.60
2018-05-04T15:31:31.963Z,10.20
2018-05-04T15:34:00.879Z,11.37
2018-05-04T15:36:29.183Z,11.07
2018-05-04T15:38:57.754Z,11.70
2018-05-04T15:41:26.046Z,10.87
2018-05-04T15:43:54.344Z,11.33
2018-05-04T15:46:23.227Z,11.27
2018-05-04T15:48:57.139Z,10.33
2018-05-04T15:51:31.215Z,10.90
2018-05-04T15:53:59.555Z,10.23
2018-05-04T15:56:27.846Z,10.60
2018-05-04T15:58:56.222Z,10.80
2018-05-04T16:01:24.556Z,11.10
2018-05-04T16:03:52.859Z,11.27
2018-05-04T16:06:21.174Z,10.83
2018-05-04T16:08:49.466Z,10.20
2018-05-04T16:11:18.523Z,11.63
2018-05-04T16:13:47.871Z,9.20
2018-05-04T16:16:16.931Z,10.17
2018-05-04T16:18:45.896Z,9.53
2018-05-04T16:21:14.226Z,10.60
2018-05-04T16:23:42.506Z,10.87
2018-05-04T16:26:11.232Z,9.80
2018-05-04T16:28:39.637Z,10.17
2018-05-04T16:31:07.927Z,10.50
2018-05-04T16:33:36.261Z,9.30
2018-05-04T16:36:04.614Z,10.60
2018-05-04T16:38:32.903Z,10.97
2018-05-04T16:41:01.231Z,10.67
2018-05-04T16:43:29.518Z,10.07
2018-05-04T16:45:57.802Z,9.60
2018-05-04T16:48:33.027Z,9.73
2018-05-04T16:51:01.718Z,10.47
2018-05-04T16:53:30.388Z,11.30
2018-05-04T16:55:58.789Z,9.03
2018-05-04T16:58:27.815Z,10.33
2018-05-04T17:00:56.979Z,11.03
2018-05-04T17:03:25.213Z,9.93
2018-05-04T17:05:59.503Z,10.90
2018-05-04T17:08:27.894Z,9.63
2018-05-04T17:10:56.762Z,9.87
2018-05-04T17:13:25.703Z,9.93
2018-05-04T17:15:54.333Z,9.20
2018-05-04T17:18:22.600Z,8.50
2018-05-04T17:20:50.930Z,9.00
2018-05-04T17:23:19.218Z,8.90
2018-05-04T17:25:47.510Z,8.90
2018-05-04T17:28:15.814Z,9.00
2018-05-04T17:30:44.294Z,7.83
2018-05-04T17:33:12.604Z,8.20
2018-05-04T17:35:40.926Z,8.47
2018-05-04T17:38:09.214Z,9.47
2018-05-04T17:40:39.291Z,6.97
2018-05-04T17:43:08.246Z,8.07
2018-05-04T17:45:36.541Z,8.13
2018-05-04T17:48:04.845Z,6.40
2018-05-04T17:50:33.177Z,5.43
2018-05-04T17:53:01.862Z,5.33
2018-05-04T17:55:30.146Z,5.70
2018-05-04T17:57:59.246Z,5.63
2018-05-04T18:00:28.294Z,5.93
2018-05-04T18:02:56.859Z,5.83
2018-05-04T18:05:25.196Z,5.43
2018-05-04T18:07:54.859Z,4.87
2018-05-04T18:10:23.827Z,4.90
2018-05-04T18:12:52.215Z,5.17
2018-05-04T18:15:20.895Z,4.57
2018-05-04T18:17:49.609Z,4.27
2018-05-04T18:20:17.891Z,4.87
2018-05-04T18:22:46.570Z,4.40
2018-05-04T18:25:15.266Z,5.00
2018-05-04T18:27:43.643Z,4.80
2018-05-04T18:30:12.628Z,4.70
2018-05-04T18:32:40.954Z,4.80
2018-05-04T18:35:09.242Z,4.43
2018-05-04T18:37:37.522Z,4.63
2018-05-04T18:40:05.853Z,5.20
2018-05-04T18:42:34.139Z,5.03
2018-05-04T18:45:02.568Z,4.00
2018-05-04T18:47:31.863Z,4.60
2018-05-04T18:50:01.318Z,4.50
2018-05-04T18:52:29.619Z,5.77
2018-05-04T18:54:57.988Z,4.97
2018-05-04T18:57:26.850Z,4.87
2018-05-04T18:59:55.882Z,4.90
2018-05-04T19:02:30.653Z,4.57
2018-05-04T19:04:58.931Z,4.30
2018-05-04T19:07:27.219Z,6.60
2018-05-04T19:09:56.522Z,5.07
2018-05-04T19:12:25.763Z,4.70
2018-05-04T19:14:55.079Z,4.87
2018-05-04T19:17:23.423Z,5.10
2018-05-04T19:19:51.751Z,4.70
2018-05-04T19:22:20.066Z,4.90
2018-05-04T19:24:48.646Z,5.17
2018-05-04T19:27:17.131Z,5.43
2018-05-04T19:29:45.411Z,4.53
2018-05-04T19:32:14.314Z,5.03
2018-05-04T19:34:43.871Z,5.00
2018-05-04T19:37:12.123Z,5.37
2018-05-04T19:39:40.826Z,4.70
2018-05-04T19:42:09.191Z,5.00
2018-05-04T19:44:37.426Z,4.20
2018-05-04T19:47:05.823Z,4.97
2018-05-04T19:49:34.942Z,4.90
2018-05-04T19:52:04.031Z,4.60
2018-05-04T19:54:33.550Z,4.93
2018-05-04T19:57:03.512Z,4.17
2018-05-04T19:59:31.935Z,5.40
2018-05-04T20:02:00.466Z,4.90
2018-05-04T20:04:28.799Z,4.83
2018-05-04T20:06:57.843Z,4.80
2018-05-04T20:09:26.455Z,5.77
2018-05-04T20:11:54.811Z,4.10
2018-05-04T20:14:24.114Z,4.23
2018-05-04T20:16:52.623Z,5.13
2018-05-04T20:19:20.972Z,4.23
2018-05-04T20:21:49.447Z,4.10
2018-05-04T20:24:17.967Z,4.43
2018-05-04T20:26:47.251Z,4.83
2018-05-04T20:29:15.618Z,4.70
2018-05-04T20:31:43.897Z,4.97
2018-05-04T20:34:12.886Z,4.27
2018-05-04T20:36:42.006Z,3.40
2018-05-04T20:39:10.490Z,4.90
2018-05-04T20:41:38.770Z,3.90
2018-05-04T20:44:08.557Z,4.10
2018-05-04T20:46:37.600Z,3.70
2018-05-04T20:49:05.911Z,4.50
2018-05-04T20:51:35.055Z,4.13
2018-05-04T20:54:03.857Z,5.43
2018-05-04T20:56:33.152Z,3.90
2018-05-04T20:59:01.490Z,4.13
2018-05-04T21:01:29.767Z,4.53
2018-05-04T21:03:58.049Z,4.47
2018-05-04T21:06:26.948Z,4.50
2018-05-04T21:08:55.427Z,4.40
2018-05-04T21:11:23.816Z,3.83
2018-05-04T21:13:52.090Z,3.93
2018-05-04T21:16:20.464Z,3.87
2018-05-04T21:18:48.803Z,4.00
2018-05-04T21:21:17.517Z,4.20
2018-05-04T21:23:46.526Z,4.27
2018-05-04T21:26:14.847Z,3.10
2018-05-04T21:28:43.206Z,3.87
2018-05-04T21:31:11.560Z,3.70
2018-05-04T21:33:39.846Z,4.10
2018-05-04T21:36:08.183Z,4.40
2018-05-04T21:38:36.714Z,4.13
2018-05-04T21:41:05.134Z,5.00
2018-05-04T21:43:33.458Z,3.40
2018-05-04T21:46:01.743Z,3.80
2018-05-04T21:48:30.019Z,3.70
2018-05-04T21:50:58.340Z,3.77
2018-05-04T21:53:26.647Z,3.60
2018-05-04T21:55:55.258Z,3.80
2018-05-04T21:58:23.579Z,4.23
2018-05-04T22:00:52.399Z,3.97
2018-05-04T22:03:20.675Z,3.60
2018-05-04T22:05:49.072Z,3.80
2018-05-04T22:08:17.351Z,3.70
2018-05-04T22:10:46.163Z,4.20
2018-05-04T22:13:14.513Z,3.67
2018-05-04T22:15:43.095Z,4.30
2018-05-04T22:18:11.376Z,4.20
2018-05-04T22:20:40.406Z,4.73
2018-05-04T22:23:08.686Z,3.83
2018-05-04T22:25:37.725Z,3.77
2018-05-04T22:28:06.045Z,4.07
2018-05-04T22:30:34.092Z,4.33
2018-05-04T22:33:02.453Z,3.93
2018-05-04T22:35:30.782Z,4.20
2018-05-04T22:37:59.099Z,3.83
2018-05-04T22:40:27.416Z,3.73
2018-05-04T22:42:56.247Z,4.07
2018-05-04T22:45:25.115Z,3.80
2018-05-04T22:47:53.410Z,4.10
2018-05-04T22:50:21.945Z,3.40
2018-05-04T22:52:50.651Z,4.20
2018-05-04T22:55:19.694Z,3.73
2018-05-04T22:57:48.498Z,4.37
2018-05-04T23:00:16.935Z,4.53
2018-05-04T23:02:45.700Z,3.87
2018-05-04T23:05:14.733Z,4.13
2018-05-04T23:07:43.229Z,4.37
2018-05-04T23:10:11.548Z,3.97
2018-05-04T23:12:39.834Z,4.17
2018-05-04T23:15:08.114Z,4.30
2018-05-04T23:17:36.711Z,3.77
2018-05-04T23:20:05.876Z,4.07
2018-05-04T23:22:34.162Z,4.20
2018-05-04T23:25:02.475Z,4.63
2018-05-04T23:27:30.756Z,4.40
2018-05-04T23:29:59.038Z,4.60
2018-05-04T23:32:27.350Z,4.33
2018-05-04T23:34:55.645Z,4.80
2018-05-04T23:37:23.939Z,4.03
2018-05-04T23:39:52.258Z,4.10
2018-05-04T23:42:20.546Z,4.37
2018-05-04T23:44:48.914Z,3.93
2018-05-04T23:47:17.242Z,4.63
2018-05-04T23:49:46.302Z,4.53
2018-05-04T23:52:14.578Z,4.43
2018-05-04T23:54:42.894Z,4.40
2018-05-04T23:57:11.782Z,4.80
2018-05-04T23:59:40.835Z,4.20
